Terminal Aerodrome Forecast
Issued by NWS Sioux Falls, SD

Home | Current Version | Previous Version | Graphics & Text | Print | Product List | Glossary Off
Versions: 1 2 3 4 5 6 7 8 9 10 11 12 13 14

000
FTUS43 KFSD 201728
TAFHON
TAF
KHON 201728Z 2018/2118 VRB03KT P6SM SKC
     FM210200 13004KT P6SM SKC
     FM210900 14008KT P6SM SKC
     FM211600 15015G22KT P6SM SKC=

USA.gov is the U.S. government's official web portal to all federal, state and local government web resources and services.